sensor_id;sensor_type;location;lat;lon;timestamp;P1;durP1;ratioP1;P2;durP2;ratioP2
76121;SDS011;64853;53.200;6.080;2023-04-25T00:00:41;2.75;;;0.80;;
76121;SDS011;64853;53.200;6.080;2023-04-25T00:05:32;2.30;;;0.70;;
76121;SDS011;64853;53.200;6.080;2023-04-25T00:10:25;3.50;;;0.70;;
76121;SDS011;64853;53.200;6.080;2023-04-25T00:15:16;2.13;;;0.68;;
76121;SDS011;64853;53.200;6.080;2023-04-25T00:20:08;2.35;;;0.80;;
76121;SDS011;64853;53.200;6.080;2023-04-25T00:25:00;2.08;;;0.85;;
76121;SDS011;64853;53.200;6.080;2023-04-25T00:29:54;2.05;;;0.80;;
76121;SDS011;64853;53.200;6.080;2023-04-25T00:34:46;0.73;;;0.50;;
76121;SDS011;64853;53.200;6.080;2023-04-25T00:39:37;2.80;;;0.80;;
76121;SDS011;64853;53.200;6.080;2023-04-25T00:44:29;2.72;;;0.70;;
76121;SDS011;64853;53.200;6.080;2023-04-25T00:49:23;1.35;;;0.65;;
76121;SDS011;64853;53.200;6.080;2023-04-25T00:54:15;1.55;;;0.60;;
76121;SDS011;64853;53.200;6.080;2023-04-25T00:59:07;1.58;;;0.70;;
76121;SDS011;64853;53.200;6.080;2023-04-25T01:04:00;1.08;;;0.70;;
76121;SDS011;64853;53.200;6.080;2023-04-25T01:08:53;1.65;;;0.88;;
76121;SDS011;64853;53.200;6.080;2023-04-25T01:13:45;1.95;;;0.63;;
76121;SDS011;64853;53.200;6.080;2023-04-25T01:18:36;2.45;;;0.70;;
76121;SDS011;64853;53.200;6.080;2023-04-25T01:23:31;3.70;;;0.70;;
76121;SDS011;64853;53.200;6.080;2023-04-25T01:28:23;2.08;;;0.50;;
76121;SDS011;64853;53.200;6.080;2023-04-25T01:33:14;2.35;;;0.65;;
76121;SDS011;64853;53.200;6.080;2023-04-25T01:38:06;2.25;;;0.60;;
76121;SDS011;64853;53.200;6.080;2023-04-25T01:42:59;2.00;;;0.50;;
76121;SDS011;64853;53.200;6.080;2023-04-25T01:47:51;1.70;;;0.40;;
76121;SDS011;64853;53.200;6.080;2023-04-25T01:52:42;0.98;;;0.60;;
76121;SDS011;64853;53.200;6.080;2023-04-25T01:57:34;0.77;;;0.45;;
76121;SDS011;64853;53.200;6.080;2023-04-25T02:02:27;1.33;;;0.40;;
76121;SDS011;64853;53.200;6.080;2023-04-25T02:07:18;1.98;;;0.52;;
76121;SDS011;64853;53.200;6.080;2023-04-25T02:12:10;2.47;;;0.88;;
76121;SDS011;64853;53.200;6.080;2023-04-25T02:17:01;1.65;;;0.45;;
76121;SDS011;64853;53.200;6.080;2023-04-25T02:21:54;1.60;;;0.40;;
76121;SDS011;64853;53.200;6.080;2023-04-25T02:26:47;1.92;;;0.50;;
76121;SDS011;64853;53.200;6.080;2023-04-25T02:31:39;1.40;;;0.40;;
76121;SDS011;64853;53.200;6.080;2023-04-25T02:36:30;1.88;;;0.50;;
76121;SDS011;64853;53.200;6.080;2023-04-25T02:41:25;1.02;;;0.50;;
76121;SDS011;64853;53.200;6.080;2023-04-25T02:46:17;0.77;;;0.40;;
76121;SDS011;64853;53.200;6.080;2023-04-25T02:51:08;1.90;;;0.40;;
76121;SDS011;64853;53.200;6.080;2023-04-25T02:56:00;1.88;;;0.80;;
76121;SDS011;64853;53.200;6.080;2023-04-25T03:00:53;1.48;;;0.38;;
76121;SDS011;64853;53.200;6.080;2023-04-25T03:05:44;1.90;;;0.57;;
76121;SDS011;64853;53.200;6.080;2023-04-25T03:10:36;1.90;;;0.47;;
76121;SDS011;64853;53.200;6.080;2023-04-25T03:15:28;0.45;;;0.28;;
76121;SDS011;64853;53.200;6.080;2023-04-25T03:20:21;1.65;;;0.50;;
76121;SDS011;64853;53.200;6.080;2023-04-25T03:25:12;1.77;;;0.40;;
76121;SDS011;64853;53.200;6.080;2023-04-25T03:30:04;1.88;;;0.50;;
76121;SDS011;64853;53.200;6.080;2023-04-25T03:34:57;3.22;;;0.50;;
76121;SDS011;64853;53.200;6.080;2023-04-25T03:39:50;0.93;;;0.30;;
76121;SDS011;64853;53.200;6.080;2023-04-25T03:44:42;1.20;;;0.63;;
76121;SDS011;64853;53.200;6.080;2023-04-25T03:49:33;0.80;;;0.30;;
76121;SDS011;64853;53.200;6.080;2023-04-25T03:54:25;0.52;;;0.22;;
76121;SDS011;64853;53.200;6.080;2023-04-25T03:59:18;1.65;;;0.30;;
76121;SDS011;64853;53.200;6.080;2023-04-25T04:04:10;2.00;;;0.40;;
76121;SDS011;64853;53.200;6.080;2023-04-25T04:09:01;1.20;;;0.20;;
76121;SDS011;64853;53.200;6.080;2023-04-25T04:13:53;1.13;;;0.45;;
76121;SDS011;64853;53.200;6.080;2023-04-25T04:18:46;0.70;;;0.20;;
76121;SDS011;64853;53.200;6.080;2023-04-25T04:23:37;0.95;;;0.38;;
76121;SDS011;64853;53.200;6.080;2023-04-25T04:28:28;0.50;;;0.30;;
76121;SDS011;64853;53.200;6.080;2023-04-25T04:33:20;1.52;;;0.43;;
76121;SDS011;64853;53.200;6.080;2023-04-25T04:38:14;0.65;;;0.20;;
76121;SDS011;64853;53.200;6.080;2023-04-25T04:43:06;1.63;;;0.38;;
76121;SDS011;64853;53.200;6.080;2023-04-25T04:47:58;1.45;;;0.68;;
76121;SDS011;64853;53.200;6.080;2023-04-25T04:52:50;1.77;;;0.45;;
76121;SDS011;64853;53.200;6.080;2023-04-25T04:57:43;0.88;;;0.40;;
76121;SDS011;64853;53.200;6.080;2023-04-25T05:02:34;0.43;;;0.13;;
76121;SDS011;64853;53.200;6.080;2023-04-25T05:07:25;1.38;;;0.35;;
76121;SDS011;64853;53.200;6.080;2023-04-25T05:12:17;0.88;;;0.30;;
76121;SDS011;64853;53.200;6.080;2023-04-25T05:17:10;0.68;;;0.20;;
76121;SDS011;64853;53.200;6.080;2023-04-25T05:22:01;0.50;;;0.20;;
76121;SDS011;64853;53.200;6.080;2023-04-25T05:31:44;2.17;;;0.30;;
76121;SDS011;64853;53.200;6.080;2023-04-25T05:36:37;1.05;;;0.25;;
76121;SDS011;64853;53.200;6.080;2023-04-25T05:41:28;0.85;;;0.30;;
76121;SDS011;64853;53.200;6.080;2023-04-25T05:46:20;0.73;;;0.40;;
76121;SDS011;64853;53.200;6.080;2023-04-25T05:51:11;1.63;;;0.50;;
76121;SDS011;64853;53.200;6.080;2023-04-25T05:56:04;1.45;;;0.35;;
76121;SDS011;64853;53.200;6.080;2023-04-25T06:00:56;1.05;;;0.20;;
76121;SDS011;64853;53.200;6.080;2023-04-25T06:05:48;2.78;;;0.17;;
76121;SDS011;64853;53.200;6.080;2023-04-25T06:10:39;1.67;;;0.20;;
76121;SDS011;64853;53.200;6.080;2023-04-25T06:15:32;1.88;;;0.70;;
76121;SDS011;64853;53.200;6.080;2023-04-25T06:20:24;2.45;;;0.50;;
76121;SDS011;64853;53.200;6.080;2023-04-25T06:25:15;2.20;;;0.60;;
76121;SDS011;64853;53.200;6.080;2023-04-25T06:30:07;0.60;;;0.30;;
76121;SDS011;64853;53.200;6.080;2023-04-25T06:35:01;1.80;;;0.50;;
76121;SDS011;64853;53.200;6.080;2023-04-25T06:39:53;1.13;;;0.28;;
76121;SDS011;64853;53.200;6.080;2023-04-25T06:49:36;0.52;;;0.20;;
76121;SDS011;64853;53.200;6.080;2023-04-25T06:54:28;0.88;;;0.15;;
76121;SDS011;64853;53.200;6.080;2023-04-25T06:59:20;2.60;;;0.40;;
76121;SDS011;64853;53.200;6.080;2023-04-25T07:04:11;1.27;;;0.38;;
76121;SDS011;64853;53.200;6.080;2023-04-25T07:09:03;0.73;;;0.28;;
76121;SDS011;64853;53.200;6.080;2023-04-25T07:13:56;0.75;;;0.30;;
76121;SDS011;64853;53.200;6.080;2023-04-25T07:18:47;0.75;;;0.30;;
76121;SDS011;64853;53.200;6.080;2023-04-25T07:23:38;1.25;;;0.40;;
76121;SDS011;64853;53.200;6.080;2023-04-25T07:28:30;1.75;;;0.30;;
76121;SDS011;64853;53.200;6.080;2023-04-25T07:33:23;1.65;;;0.20;;
76121;SDS011;64853;53.200;6.080;2023-04-25T07:38:14;0.85;;;0.30;;
76121;SDS011;64853;53.200;6.080;2023-04-25T07:43:06;1.27;;;0.20;;
76121;SDS011;64853;53.200;6.080;2023-04-25T07:52:50;0.93;;;0.15;;
76121;SDS011;64853;53.200;6.080;2023-04-25T07:57:42;0.77;;;0.30;;
76121;SDS011;64853;53.200;6.080;2023-04-25T08:02:33;0.77;;;0.25;;
76121;SDS011;64853;53.200;6.080;2023-04-25T08:07:25;1.17;;;0.17;;
76121;SDS011;64853;53.200;6.080;2023-04-25T08:12:17;0.82;;;0.20;;
76121;SDS011;64853;53.200;6.080;2023-04-25T08:17:09;0.50;;;0.10;;
76121;SDS011;64853;53.200;6.080;2023-04-25T08:22:01;1.13;;;0.25;;
76121;SDS011;64853;53.200;6.080;2023-04-25T08:26:52;0.73;;;0.22;;
76121;SDS011;64853;53.200;6.080;2023-04-25T08:31:45;1.35;;;0.30;;
76121;SDS011;64853;53.200;6.080;2023-04-25T08:36:36;0.98;;;0.20;;
76121;SDS011;64853;53.200;6.080;2023-04-25T08:41:28;1.02;;;0.30;;
76121;SDS011;64853;53.200;6.080;2023-04-25T08:46:19;0.52;;;0.15;;
76121;SDS011;64853;53.200;6.080;2023-04-25T08:56:06;1.13;;;0.20;;
76121;SDS011;64853;53.200;6.080;2023-04-25T09:00:59;2.17;;;0.20;;
76121;SDS011;64853;53.200;6.080;2023-04-25T09:05:51;0.73;;;0.30;;
76121;SDS011;64853;53.200;6.080;2023-04-25T09:10:44;0.75;;;0.22;;
76121;SDS011;64853;53.200;6.080;2023-04-25T09:15:46;0.77;;;0.10;;
76121;SDS011;64853;53.200;6.080;2023-04-25T09:20:41;1.83;;;0.40;;
76121;SDS011;64853;53.200;6.080;2023-04-25T09:25:33;1.92;;;0.73;;
76121;SDS011;64853;53.200;6.080;2023-04-25T09:30:30;3.35;;;0.90;;
76121;SDS011;64853;53.200;6.080;2023-04-25T09:35:25;0.82;;;0.10;;
76121;SDS011;64853;53.200;6.080;2023-04-25T09:40:17;1.50;;;0.22;;
76121;SDS011;64853;53.200;6.080;2023-04-25T09:45:09;0.55;;;0.20;;
76121;SDS011;64853;53.200;6.080;2023-04-25T09:50:15;0.75;;;0.25;;
76121;SDS011;64853;53.200;6.080;2023-04-25T09:55:07;0.63;;;0.50;;
76121;SDS011;64853;53.200;6.080;2023-04-25T10:00:00;0.88;;;0.30;;
76121;SDS011;64853;53.200;6.080;2023-04-25T10:04:54;1.50;;;0.50;;
76121;SDS011;64853;53.200;6.080;2023-04-25T10:09:48;0.52;;;0.20;;
76121;SDS011;64853;53.200;6.080;2023-04-25T10:14:40;1.52;;;0.38;;
76121;SDS011;64853;53.200;6.080;2023-04-25T10:19:33;2.05;;;0.40;;
76121;SDS011;64853;53.200;6.080;2023-04-25T10:29:22;3.15;;;0.50;;
76121;SDS011;64853;53.200;6.080;2023-04-25T10:34:15;1.90;;;0.50;;
76121;SDS011;64853;53.200;6.080;2023-04-25T10:39:07;2.70;;;0.60;;
76121;SDS011;64853;53.200;6.080;2023-04-25T10:43:59;3.03;;;1.00;;
76121;SDS011;64853;53.200;6.080;2023-04-25T10:48:54;3.70;;;0.90;;
76121;SDS011;64853;53.200;6.080;2023-04-25T10:53:46;1.13;;;0.47;;
76121;SDS011;64853;53.200;6.080;2023-04-25T10:58:47;1.20;;;0.68;;
76121;SDS011;64853;53.200;6.080;2023-04-25T11:03:42;1.55;;;0.68;;
76121;SDS011;64853;53.200;6.080;2023-04-25T11:08:37;1.75;;;0.50;;
76121;SDS011;64853;53.200;6.080;2023-04-25T11:13:39;6.72;;;4.15;;
76121;SDS011;64853;53.200;6.080;2023-04-25T11:18:30;4.60;;;3.55;;
76121;SDS011;64853;53.200;6.080;2023-04-25T11:23:24;3.90;;;3.00;;
76121;SDS011;64853;53.200;6.080;2023-04-25T11:28:21;3.55;;;2.40;;
76121;SDS011;64853;53.200;6.080;2023-04-25T11:33:13;4.75;;;2.20;;
76121;SDS011;64853;53.200;6.080;2023-04-25T11:38:05;1.90;;;1.58;;
76121;SDS011;64853;53.200;6.080;2023-04-25T11:42:56;2.30;;;1.48;;
76121;SDS011;64853;53.200;6.080;2023-04-25T11:47:52;3.55;;;1.30;;
76121;SDS011;64853;53.200;6.080;2023-04-25T11:52:44;1.42;;;1.00;;
76121;SDS011;64853;53.200;6.080;2023-04-25T11:57:37;3.22;;;1.10;;
76121;SDS011;64853;53.200;6.080;2023-04-25T12:02:30;2.17;;;1.30;;
76121;SDS011;64853;53.200;6.080;2023-04-25T12:12:18;1.92;;;0.50;;
76121;SDS011;64853;53.200;6.080;2023-04-25T12:17:10;2.67;;;0.80;;
76121;SDS011;64853;53.200;6.080;2023-04-25T12:22:02;2.10;;;0.55;;
76121;SDS011;64853;53.200;6.080;2023-04-25T12:26:59;3.00;;;0.50;;
76121;SDS011;64853;53.200;6.080;2023-04-25T12:31:53;1.88;;;0.63;;
76121;SDS011;64853;53.200;6.080;2023-04-25T12:36:45;1.92;;;0.55;;
76121;SDS011;64853;53.200;6.080;2023-04-25T12:41:37;2.35;;;0.50;;
76121;SDS011;64853;53.200;6.080;2023-04-25T12:46:29;2.20;;;0.60;;
76121;SDS011;64853;53.200;6.080;2023-04-25T12:51:21;1.65;;;0.50;;
76121;SDS011;64853;53.200;6.080;2023-04-25T12:56:14;1.85;;;0.40;;
76121;SDS011;64853;53.200;6.080;2023-04-25T13:01:06;1.90;;;0.30;;
76121;SDS011;64853;53.200;6.080;2023-04-25T13:10:50;2.03;;;0.50;;
76121;SDS011;64853;53.200;6.080;2023-04-25T13:15:41;1.23;;;0.63;;
76121;SDS011;64853;53.200;6.080;2023-04-25T13:20:33;1.73;;;0.65;;
76121;SDS011;64853;53.200;6.080;2023-04-25T13:25:26;1.38;;;0.60;;
76121;SDS011;64853;53.200;6.080;2023-04-25T13:30:17;2.08;;;0.70;;
76121;SDS011;64853;53.200;6.080;2023-04-25T13:35:09;1.27;;;0.40;;
76121;SDS011;64853;53.200;6.080;2023-04-25T13:40:02;1.58;;;0.40;;
76121;SDS011;64853;53.200;6.080;2023-04-25T13:44:56;1.55;;;0.50;;
76121;SDS011;64853;53.200;6.080;2023-04-25T13:49:48;1.45;;;0.40;;
76121;SDS011;64853;53.200;6.080;2023-04-25T13:54:39;2.35;;;0.43;;
76121;SDS011;64853;53.200;6.080;2023-04-25T13:59:31;1.88;;;0.50;;
76121;SDS011;64853;53.200;6.080;2023-04-25T14:09:16;1.42;;;0.35;;
76121;SDS011;64853;53.200;6.080;2023-04-25T14:14:07;1.55;;;0.50;;
76121;SDS011;64853;53.200;6.080;2023-04-25T14:18:59;1.98;;;0.20;;
76121;SDS011;64853;53.200;6.080;2023-04-25T14:23:52;0.90;;;0.40;;
76121;SDS011;64853;53.200;6.080;2023-04-25T14:28:43;0.90;;;0.40;;
76121;SDS011;64853;53.200;6.080;2023-04-25T14:33:34;0.85;;;0.30;;
76121;SDS011;64853;53.200;6.080;2023-04-25T14:38:27;2.10;;;0.50;;
76121;SDS011;64853;53.200;6.080;2023-04-25T14:43:20;1.10;;;0.25;;
76121;SDS011;64853;53.200;6.080;2023-04-25T14:48:12;0.75;;;0.20;;
76121;SDS011;64853;53.200;6.080;2023-04-25T14:53:03;0.65;;;0.20;;
76121;SDS011;64853;53.200;6.080;2023-04-25T14:57:55;0.77;;;0.40;;
76121;SDS011;64853;53.200;6.080;2023-04-25T15:07:40;1.95;;;0.40;;
76121;SDS011;64853;53.200;6.080;2023-04-25T15:12:32;0.73;;;0.28;;
76121;SDS011;64853;53.200;6.080;2023-04-25T15:17:23;1.38;;;0.22;;
76121;SDS011;64853;53.200;6.080;2023-04-25T15:22:16;1.80;;;0.50;;
76121;SDS011;64853;53.200;6.080;2023-04-25T15:27:07;1.02;;;0.40;;
76121;SDS011;64853;53.200;6.080;2023-04-25T15:31:59;0.95;;;0.20;;
76121;SDS011;64853;53.200;6.080;2023-04-25T15:36:50;0.90;;;0.30;;
76121;SDS011;64853;53.200;6.080;2023-04-25T15:41:43;0.45;;;0.20;;
76121;SDS011;64853;53.200;6.080;2023-04-25T15:46:34;0.40;;;0.20;;
76121;SDS011;64853;53.200;6.080;2023-04-25T15:51:26;1.08;;;0.38;;
76121;SDS011;64853;53.200;6.080;2023-04-25T15:56:17;1.08;;;0.32;;
76121;SDS011;64853;53.200;6.080;2023-04-25T16:01:10;1.20;;;0.20;;
76121;SDS011;64853;53.200;6.080;2023-04-25T16:06:01;1.45;;;0.35;;
76121;SDS011;64853;53.200;6.080;2023-04-25T16:10:53;2.22;;;0.40;;
76121;SDS011;64853;53.200;6.080;2023-04-25T16:15:45;1.42;;;0.30;;
76121;SDS011;64853;53.200;6.080;2023-04-25T16:20:38;0.55;;;0.28;;
76121;SDS011;64853;53.200;6.080;2023-04-25T16:25:30;1.80;;;0.40;;
76121;SDS011;64853;53.200;6.080;2023-04-25T16:30:21;2.05;;;0.30;;
76121;SDS011;64853;53.200;6.080;2023-04-25T16:35:12;1.58;;;0.60;;
76121;SDS011;64853;53.200;6.080;2023-04-25T16:40:06;1.42;;;0.40;;
76121;SDS011;64853;53.200;6.080;2023-04-25T16:44:58;0.68;;;0.40;;
76121;SDS011;64853;53.200;6.080;2023-04-25T16:49:50;1.00;;;0.30;;
76121;SDS011;64853;53.200;6.080;2023-04-25T16:54:42;0.77;;;0.30;;
76121;SDS011;64853;53.200;6.080;2023-04-25T16:59:35;0.88;;;0.38;;
76121;SDS011;64853;53.200;6.080;2023-04-25T17:04:27;0.75;;;0.30;;
76121;SDS011;64853;53.200;6.080;2023-04-25T17:09:19;0.60;;;0.30;;
76121;SDS011;64853;53.200;6.080;2023-04-25T17:14:10;0.70;;;0.50;;
76121;SDS011;64853;53.200;6.080;2023-04-25T17:19:03;2.22;;;0.28;;
76121;SDS011;64853;53.200;6.080;2023-04-25T17:23:55;1.05;;;0.45;;
76121;SDS011;64853;53.200;6.080;2023-04-25T17:28:48;0.95;;;0.20;;
76121;SDS011;64853;53.200;6.080;2023-04-25T17:33:39;0.70;;;0.20;;
76121;SDS011;64853;53.200;6.080;2023-04-25T17:38:32;1.65;;;0.40;;
76121;SDS011;64853;53.200;6.080;2023-04-25T17:43:24;0.57;;;0.20;;
76121;SDS011;64853;53.200;6.080;2023-04-25T17:48:16;1.40;;;0.57;;
76121;SDS011;64853;53.200;6.080;2023-04-25T17:53:08;0.80;;;0.30;;
76121;SDS011;64853;53.200;6.080;2023-04-25T17:58:00;1.67;;;0.40;;
76121;SDS011;64853;53.200;6.080;2023-04-25T18:02:52;1.45;;;0.35;;
76121;SDS011;64853;53.200;6.080;2023-04-25T18:07:43;0.50;;;0.30;;
76121;SDS011;64853;53.200;6.080;2023-04-25T18:17:28;2.22;;;0.40;;
76121;SDS011;64853;53.200;6.080;2023-04-25T18:22:20;0.88;;;0.60;;
76121;SDS011;64853;53.200;6.080;2023-04-25T18:27:11;2.70;;;0.65;;
76121;SDS011;64853;53.200;6.080;2023-04-25T18:36:56;1.08;;;0.30;;
76121;SDS011;64853;53.200;6.080;2023-04-25T18:41:47;0.82;;;0.30;;
76121;SDS011;64853;53.200;6.080;2023-04-25T18:46:39;0.93;;;0.40;;
76121;SDS011;64853;53.200;6.080;2023-04-25T18:51:32;3.60;;;0.75;;
76121;SDS011;64853;53.200;6.080;2023-04-25T18:56:25;2.83;;;0.30;;
76121;SDS011;64853;53.200;6.080;2023-04-25T19:01:18;1.95;;;0.73;;
76121;SDS011;64853;53.200;6.080;2023-04-25T19:06:09;0.50;;;0.30;;
76121;SDS011;64853;53.200;6.080;2023-04-25T19:11:01;0.75;;;0.50;;
76121;SDS011;64853;53.200;6.080;2023-04-25T19:15:56;1.00;;;0.30;;
76121;SDS011;64853;53.200;6.080;2023-04-25T19:20:47;0.80;;;0.30;;
76121;SDS011;64853;53.200;6.080;2023-04-25T19:25:39;1.35;;;0.30;;
76121;SDS011;64853;53.200;6.080;2023-04-25T19:30:31;0.90;;;0.40;;
76121;SDS011;64853;53.200;6.080;2023-04-25T19:35:24;1.02;;;0.40;;
76121;SDS011;64853;53.200;6.080;2023-04-25T19:40:19;1.98;;;0.40;;
76121;SDS011;64853;53.200;6.080;2023-04-25T19:45:11;1.60;;;0.40;;
76121;SDS011;64853;53.200;6.080;2023-04-25T19:50:03;1.77;;;0.35;;
76121;SDS011;64853;53.200;6.080;2023-04-25T19:54:58;0.43;;;0.22;;
76121;SDS011;64853;53.200;6.080;2023-04-25T19:59:51;0.30;;;0.20;;
76121;SDS011;64853;53.200;6.080;2023-04-25T20:04:42;1.00;;;0.40;;
76121;SDS011;64853;53.200;6.080;2023-04-25T20:09:34;1.75;;;0.35;;
76121;SDS011;64853;53.200;6.080;2023-04-25T20:14:27;1.70;;;0.50;;
76121;SDS011;64853;53.200;6.080;2023-04-25T20:19:18;1.10;;;0.32;;
76121;SDS011;64853;53.200;6.080;2023-04-25T20:24:09;0.30;;;0.28;;
76121;SDS011;64853;53.200;6.080;2023-04-25T20:29:01;0.52;;;0.30;;
76121;SDS011;64853;53.200;6.080;2023-04-25T20:33:54;1.50;;;0.28;;
76121;SDS011;64853;53.200;6.080;2023-04-25T20:38:45;0.40;;;0.30;;
76121;SDS011;64853;53.200;6.080;2023-04-25T20:43:37;0.65;;;0.20;;
76121;SDS011;64853;53.200;6.080;2023-04-25T20:48:29;0.85;;;0.32;;
76121;SDS011;64853;53.200;6.080;2023-04-25T20:53:22;1.98;;;0.32;;
76121;SDS011;64853;53.200;6.080;2023-04-25T20:58:13;0.95;;;0.80;;
76121;SDS011;64853;53.200;6.080;2023-04-25T21:03:05;1.77;;;0.57;;
76121;SDS011;64853;53.200;6.080;2023-04-25T21:07:57;0.82;;;0.40;;
76121;SDS011;64853;53.200;6.080;2023-04-25T21:12:50;0.45;;;0.25;;
76121;SDS011;64853;53.200;6.080;2023-04-25T21:17:43;0.68;;;0.38;;
76121;SDS011;64853;53.200;6.080;2023-04-25T21:22:36;0.85;;;0.43;;
76121;SDS011;64853;53.200;6.080;2023-04-25T21:27:33;1.77;;;0.40;;
76121;SDS011;64853;53.200;6.080;2023-04-25T21:32:27;1.63;;;0.50;;
76121;SDS011;64853;53.200;6.080;2023-04-25T21:37:18;0.88;;;0.47;;
76121;SDS011;64853;53.200;6.080;2023-04-25T21:42:09;0.90;;;0.60;;
76121;SDS011;64853;53.200;6.080;2023-04-25T21:47:01;1.13;;;0.28;;
76121;SDS011;64853;53.200;6.080;2023-04-25T21:51:54;0.75;;;0.35;;
76121;SDS011;64853;53.200;6.080;2023-04-25T21:56:46;1.05;;;0.40;;
76121;SDS011;64853;53.200;6.080;2023-04-25T22:01:38;1.23;;;0.40;;
76121;SDS011;64853;53.200;6.080;2023-04-25T22:06:29;0.88;;;0.32;;
76121;SDS011;64853;53.200;6.080;2023-04-25T22:11:22;1.42;;;0.52;;
76121;SDS011;64853;53.200;6.080;2023-04-25T22:16:15;0.73;;;0.30;;
76121;SDS011;64853;53.200;6.080;2023-04-25T22:25:58;1.35;;;0.40;;
76121;SDS011;64853;53.200;6.080;2023-04-25T22:30:51;0.82;;;0.40;;
76121;SDS011;64853;53.200;6.080;2023-04-25T22:35:42;3.80;;;0.63;;
76121;SDS011;64853;53.200;6.080;2023-04-25T22:40:34;0.98;;;0.30;;
76121;SDS011;64853;53.200;6.080;2023-04-25T22:50:18;0.90;;;0.50;;
76121;SDS011;64853;53.200;6.080;2023-04-25T22:55:10;1.83;;;0.50;;
76121;SDS011;64853;53.200;6.080;2023-04-25T23:00:02;0.82;;;0.38;;
76121;SDS011;64853;53.200;6.080;2023-04-25T23:04:58;1.33;;;0.40;;
76121;SDS011;64853;53.200;6.080;2023-04-25T23:09:51;0.40;;;0.28;;
76121;SDS011;64853;53.200;6.080;2023-04-25T23:14:43;0.85;;;0.30;;
76121;SDS011;64853;53.200;6.080;2023-04-25T23:19:35;1.00;;;0.47;;
76121;SDS011;64853;53.200;6.080;2023-04-25T23:24:26;1.58;;;0.57;;
76121;SDS011;64853;53.200;6.080;2023-04-25T23:29:19;0.88;;;0.50;;
76121;SDS011;64853;53.200;6.080;2023-04-25T23:34:11;0.30;;;0.22;;
76121;SDS011;64853;53.200;6.080;2023-04-25T23:39:02;1.42;;;0.28;;
76121;SDS011;64853;53.200;6.080;2023-04-25T23:43:54;1.15;;;0.40;;
76121;SDS011;64853;53.200;6.080;2023-04-25T23:48:47;1.23;;;0.32;;
76121;SDS011;64853;53.200;6.080;2023-04-25T23:53:38;0.70;;;0.40;;
76121;SDS011;64853;53.200;6.080;2023-04-25T23:58:30;0.85;;;0.30;;
